Time;durP1;ratioP1;P1;durP2;ratioP2;P2;SDS_P1;SDS_P2;PMS_P1;PMS_P2;Temp;Humidity;BMP_temperature;BMP_pressure;BME280_temperature;BME280_humidity;BME280_pressure;Samples;Min_cycle;Max_cycle;Signal;HPM_P1;HPM_P2
2022/11/12 00:00:22;;;;;;;16.73;7.18;;;8.40;99.90;;;;;;5089795;28;20048;-83
2022/11/12 00:02:47;;;;;;;13.32;6.93;;;8.40;99.90;;;;;;5087651;28;20526;-83
2022/11/12 00:05:13;;;;;;;14.23;6.40;;;8.40;99.90;;;;;;5089839;28;20415;-83
2022/11/12 00:07:39;;;;;;;12.98;6.75;;;8.40;99.90;;;;;;5074307;28;20089;-83
2022/11/12 00:10:05;;;;;;;13.43;6.75;;;8.40;99.90;;;;;;5090250;28;20054;-83
2022/11/12 00:12:30;;;;;;;17.58;7.63;;;8.40;99.90;;;;;;5091184;28;20069;-83
2022/11/12 00:14:56;;;;;;;16.67;7.28;;;8.40;99.90;;;;;;5074529;28;20572;-83
2022/11/12 00:17:21;;;;;;;15.23;6.80;;;8.40;99.90;;;;;;5073650;28;20048;-83
2022/11/12 00:19:47;;;;;;;13.75;6.82;;;8.40;99.90;;;;;;5091386;28;20130;-83
2022/11/12 00:22:13;;;;;;;15.52;7.15;;;8.40;99.90;;;;;;5089727;28;20067;-83
2022/11/12 00:24:39;;;;;;;16.08;7.05;;;8.30;99.90;;;;;;5090184;28;20453;-83
2022/11/12 00:27:04;;;;;;;15.20;7.22;;;8.40;99.90;;;;;;5089559;28;20083;-83
2022/11/12 00:29:30;;;;;;;12.45;6.45;;;8.30;99.90;;;;;;5089264;28;20064;-83
2022/11/12 00:31:55;;;;;;;14.38;7.35;;;8.30;99.90;;;;;;5090596;28;20081;-83
2022/11/12 00:34:21;;;;;;;17.13;7.07;;;8.30;99.90;;;;;;5090167;28;20036;-83
2022/11/12 00:36:47;;;;;;;16.80;7.32;;;8.30;99.90;;;;;;5073785;28;20130;-83
2022/11/12 00:39:12;;;;;;;15.93;6.82;;;8.30;99.90;;;;;;5073868;28;20039;-83
2022/11/12 00:41:38;;;;;;;16.05;6.68;;;8.30;99.90;;;;;;5089874;28;20032;-83
2022/11/12 00:44:03;;;;;;;13.63;7.03;;;8.20;99.90;;;;;;5089530;28;20386;-83
2022/11/12 00:46:29;;;;;;;16.55;7.63;;;8.20;99.90;;;;;;5073237;28;20667;-83
2022/11/12 00:48:55;;;;;;;13.05;6.93;;;8.20;99.90;;;;;;5072343;28;20040;-83
2022/11/12 00:51:21;;;;;;;13.13;5.70;;;8.10;99.90;;;;;;5090649;28;20044;-83
2022/11/12 00:53:49;;;;;;;11.48;5.55;;;8.10;99.90;;;;;;5089852;28;20032;-83
2022/11/12 00:56:15;;;;;;;12.07;5.72;;;8.10;99.90;;;;;;5073376;28;20051;-83
2022/11/12 00:58:41;;;;;;;12.70;5.85;;;8.10;99.90;;;;;;5090124;28;20040;-83
2022/11/12 01:01:11;;;;;;;12.82;6.22;;;8.10;99.90;;;;;;5072721;28;20093;-83
2022/11/12 01:03:38;;;;;;;11.18;5.75;;;8.00;99.90;;;;;;5072645;28;20047;-83
2022/11/12 01:06:06;;;;;;;12.50;5.97;;;8.10;99.90;;;;;;5072826;28;20051;-83
2022/11/12 01:08:31;;;;;;;13.43;5.55;;;8.00;99.90;;;;;;5089540;28;20032;-83
2022/11/12 01:11:05;;;;;;;15.43;6.68;;;8.00;99.90;;;;;;5090426;28;20550;-83
2022/11/12 01:13:30;;;;;;;13.40;5.70;;;8.00;99.90;;;;;;5080561;28;20044;-83
2022/11/12 01:15:56;;;;;;;13.57;5.47;;;8.00;99.90;;;;;;5073636;28;20119;-83
2022/11/12 01:18:21;;;;;;;12.35;5.47;;;7.90;99.90;;;;;;5073083;28;20071;-83
2022/11/12 01:20:47;;;;;;;14.00;5.32;;;7.90;99.90;;;;;;5089774;28;20071;-84
2022/11/12 01:23:12;;;;;;;12.45;4.85;;;8.00;99.90;;;;;;5089027;28;20241;-83
2022/11/12 01:25:38;;;;;;;17.33;6.20;;;8.00;99.90;;;;;;5088885;28;20034;-83
2022/11/12 01:28:03;;;;;;;14.98;6.05;;;8.00;99.90;;;;;;5090277;28;20061;-83
2022/11/12 01:30:29;;;;;;;12.80;5.35;;;7.90;99.90;;;;;;5089037;28;20047;-83
2022/11/12 01:32:55;;;;;;;10.93;5.38;;;8.00;99.90;;;;;;5089839;28;20100;-83
2022/11/12 01:35:21;;;;;;;14.52;5.88;;;7.90;99.90;;;;;;5090002;28;20044;-84
2022/11/12 01:37:46;;;;;;;10.73;5.00;;;7.90;99.90;;;;;;5072690;28;20141;-83
2022/11/12 01:40:12;;;;;;;13.25;5.38;;;7.90;99.90;;;;;;5073285;28;20047;-83
2022/11/12 01:42:38;;;;;;;11.35;5.25;;;7.90;99.90;;;;;;5071689;28;20040;-83
2022/11/12 01:45:16;;;;;;;11.95;4.78;;;7.80;99.90;;;;;;5088988;28;20086;-83
2022/11/12 01:47:45;;;;;;;11.35;4.63;;;7.80;99.90;;;;;;5089942;28;20070;-83
2022/11/12 01:50:21;;;;;;;12.13;4.80;;;7.70;99.90;;;;;;5089133;28;20046;-83
2022/11/12 01:52:57;;;;;;;10.38;4.57;;;7.70;99.90;;;;;;5089660;28;20046;-83
2022/11/12 01:55:26;;;;;;;12.38;5.57;;;7.60;99.90;;;;;;5072544;28;20519;-83
2022/11/12 01:57:58;;;;;;;12.73;5.15;;;7.60;99.90;;;;;;5091110;28;20047;-83
2022/11/12 02:00:24;;;;;;;10.45;4.78;;;7.60;99.90;;;;;;5077134;28;20539;-84
2022/11/12 02:02:57;;;;;;;12.98;5.18;;;7.70;99.90;;;;;;5092297;28;20044;-83
2022/11/12 02:05:25;;;;;;;11.20;5.40;;;7.60;99.90;;;;;;5093247;28;20039;-83
2022/11/12 02:07:51;;;;;;;12.80;5.13;;;7.60;99.90;;;;;;5092811;28;20081;-83
2022/11/12 02:10:21;;;;;;;10.25;4.72;;;7.60;99.90;;;;;;5076365;28;20493;-83
2022/11/12 02:15:33;;;;;;;10.13;4.68;;;7.60;99.90;;;;;;5093270;28;20048;-83
2022/11/12 02:17:59;;;;;;;12.55;4.53;;;7.60;99.90;;;;;;5076542;28;20219;-83
2022/11/12 02:20:24;;;;;;;14.98;5.60;;;7.60;99.90;;;;;;5092476;28;20083;-83
2022/11/12 02:22:50;;;;;;;13.57;5.38;;;7.60;99.90;;;;;;5092333;28;20043;-83
2022/11/12 02:25:19;;;;;;;9.10;3.97;;;7.60;99.90;;;;;;5093009;28;20101;-83
2022/11/12 02:27:50;;;;;;;9.45;4.55;;;7.50;99.90;;;;;;5083406;28;20043;-83
2022/11/12 02:30:17;;;;;;;11.45;4.00;;;7.50;99.90;;;;;;5075902;28;20382;-83
2022/11/12 02:32:42;;;;;;;16.70;4.82;;;7.40;99.90;;;;;;5092646;28;20048;-83
2022/11/12 02:35:08;;;;;;;10.50;4.55;;;7.30;99.90;;;;;;5092569;28;20047;-83
2022/11/12 02:37:33;;;;;;;11.27;4.70;;;7.40;99.90;;;;;;5092668;28;20044;-83
2022/11/12 02:39:59;;;;;;;10.52;4.78;;;7.30;99.90;;;;;;5093129;28;20054;-83
2022/11/12 02:42:24;;;;;;;15.10;5.03;;;7.30;99.90;;;;;;5092391;28;20127;-83
2022/11/12 02:44:50;;;;;;;13.90;5.07;;;7.30;99.90;;;;;;5091843;28;20623;-84
2022/11/12 02:47:16;;;;;;;11.35;5.60;;;7.30;99.90;;;;;;5092790;28;20539;-83
2022/11/12 02:49:43;;;;;;;12.95;5.45;;;7.40;99.90;;;;;;5091838;28;20032;-83
2022/11/12 02:52:09;;;;;;;12.95;4.90;;;7.40;99.90;;;;;;5092171;28;20071;-83
2022/11/12 02:54:35;;;;;;;12.77;4.95;;;7.40;99.90;;;;;;5092636;28;20055;-83
2022/11/12 02:57:00;;;;;;;14.95;5.93;;;7.40;99.90;;;;;;5091860;28;20036;-83
2022/11/12 02:59:26;;;;;;;13.30;5.43;;;7.40;99.90;;;;;;5092752;28;20097;-83
2022/11/12 03:01:51;;;;;;;12.90;5.05;;;7.50;99.90;;;;;;5074855;28;20043;-83
2022/11/12 03:04:17;;;;;;;11.38;5.28;;;7.40;99.90;;;;;;5074258;28;20127;-83
2022/11/12 03:06:42;;;;;;;10.40;4.00;;;7.40;99.90;;;;;;5092527;28;20032;-83
2022/11/12 03:09:11;;;;;;;9.57;3.83;;;7.30;99.90;;;;;;5090528;28;20485;-83
2022/11/12 03:11:36;;;;;;;9.15;4.00;;;7.30;99.90;;;;;;5092404;28;20032;-83
2022/11/12 03:14:02;;;;;;;14.73;4.68;;;7.20;99.90;;;;;;5091854;28;20758;-83
2022/11/12 03:16:28;;;;;;;11.13;4.82;;;7.10;99.90;;;;;;5091928;28;20459;-83
2022/11/12 03:18:53;;;;;;;13.82;4.68;;;7.10;99.90;;;;;;5092263;28;20131;-83
2022/11/12 03:21:19;;;;;;;12.70;5.00;;;7.10;99.90;;;;;;5091639;28;20131;-83
2022/11/12 03:23:44;;;;;;;13.52;5.78;;;7.10;99.90;;;;;;5074314;28;20422;-83
2022/11/12 03:26:10;;;;;;;11.60;4.50;;;7.00;99.90;;;;;;5091060;28;20577;-83
2022/11/12 03:28:35;;;;;;;9.60;4.18;;;7.10;99.90;;;;;;5075146;28;20063;-83
2022/11/12 03:31:01;;;;;;;14.13;5.47;;;7.10;99.90;;;;;;5091342;28;20123;-83
2022/11/12 03:33:26;;;;;;;11.88;4.93;;;7.10;99.90;;;;;;5090988;28;20036;-83
2022/11/12 03:35:52;;;;;;;14.57;5.38;;;7.10;99.90;;;;;;5074980;28;20040;-83
2022/11/12 03:38:18;;;;;;;14.45;5.78;;;7.10;99.90;;;;;;5091501;28;20055;-83
2022/11/12 03:40:43;;;;;;;12.15;5.88;;;7.20;99.90;;;;;;5074766;28;20039;-83
2022/11/12 03:43:09;;;;;;;11.65;5.63;;;7.20;99.90;;;;;;5090285;28;20043;-83
2022/11/12 03:45:34;;;;;;;14.10;5.82;;;7.20;99.90;;;;;;5091032;28;20447;-83
2022/11/12 03:48:00;;;;;;;10.63;5.03;;;7.20;99.90;;;;;;5091794;28;20448;-83
2022/11/12 03:50:27;;;;;;;15.02;5.03;;;7.20;99.90;;;;;;5107514;28;20032;-83
2022/11/12 03:52:55;;;;;;;12.00;4.90;;;7.20;99.90;;;;;;5073900;28;20051;-83
2022/11/12 03:55:23;;;;;;;10.88;4.80;;;7.10;99.90;;;;;;5091410;28;20043;-82
2022/11/12 03:57:50;;;;;;;10.73;4.60;;;7.10;99.90;;;;;;5073666;28;20032;-83
2022/11/12 04:00:17;;;;;;;14.95;5.43;;;7.10;99.90;;;;;;5091485;28;20101;-83
2022/11/12 04:02:43;;;;;;;12.43;5.05;;;7.10;99.90;;;;;;5090214;28;20044;-83
2022/11/12 04:10:42;;;;;;;10.35;4.75;;;7.10;99.90;;;;;;5090675;28;20440;-83
2022/11/12 04:21:54;;;;;;;9.85;4.25;;;7.00;99.90;;;;;;5090055;28;20048;-83
2022/11/12 04:27:26;;;;;;;9.57;3.90;;;6.80;99.90;;;;;;5090731;28;20649;-83
2022/11/12 04:32:39;;;;;;;7.00;3.30;;;6.70;99.90;;;;;;5089815;28;20036;-83
2022/11/12 04:35:07;;;;;;;8.52;3.22;;;6.60;99.90;;;;;;5088902;28;20174;-83
2022/11/12 04:37:43;;;;;;;8.65;3.70;;;6.50;99.90;;;;;;5090298;28;20089;-83
2022/11/12 04:46:02;;;;;;;8.38;3.50;;;6.30;99.90;;;;;;5089472;28;20036;-83
2022/11/12 04:48:27;;;;;;;9.40;3.47;;;6.20;99.90;;;;;;5090779;28;20050;-83
2022/11/12 04:50:56;;;;;;;8.73;3.60;;;6.20;99.90;;;;;;5072750;28;20106;-83
2022/11/12 04:53:22;;;;;;;8.45;3.45;;;6.20;99.90;;;;;;5073321;28;20085;-83
2022/11/12 04:55:52;;;;;;;10.65;3.88;;;6.20;99.90;;;;;;5073626;28;20051;-83
2022/11/12 04:58:18;;;;;;;9.70;3.75;;;6.20;99.90;;;;;;5089814;28;20047;-83
2022/11/12 05:00:43;;;;;;;9.25;3.55;;;6.30;99.90;;;;;;5073598;28;20458;-82
2022/11/12 05:03:09;;;;;;;7.57;3.35;;;6.20;99.90;;;;;;5089437;28;20072;-84
2022/11/12 05:05:35;;;;;;;6.97;2.50;;;6.20;99.90;;;;;;5089311;28;20485;-84
2022/11/12 05:08:01;;;;;;;5.63;2.60;;;6.20;99.90;;;;;;5090580;28;20497;-84
2022/11/12 05:10:27;;;;;;;8.73;3.78;;;6.10;99.90;;;;;;5088995;28;20089;-84
2022/11/12 05:12:53;;;;;;;7.32;3.10;;;6.10;99.90;;;;;;5073087;28;20044;-84
2022/11/12 05:15:18;;;;;;;7.00;2.80;;;6.10;99.90;;;;;;5089969;28;20044;-84
2022/11/12 05:17:44;;;;;;;6.88;3.00;;;6.10;99.90;;;;;;5090157;28;20127;-84
2022/11/12 05:20:11;;;;;;;9.90;3.88;;;6.00;99.90;;;;;;5090271;28;20044;-84
2022/11/12 05:22:37;;;;;;;7.22;3.30;;;6.10;99.90;;;;;;5071952;28;20047;-84
2022/11/12 05:25:03;;;;;;;9.23;3.58;;;6.00;99.90;;;;;;5072578;28;20040;-84
2022/11/12 05:27:29;;;;;;;9.77;3.28;;;6.00;99.90;;;;;;5073599;28;20588;-84
2022/11/12 05:29:54;;;;;;;5.93;2.67;;;6.00;99.90;;;;;;5089154;28;20028;-84
2022/11/12 05:32:20;;;;;;;8.63;3.15;;;5.90;99.90;;;;;;5075231;28;20717;-84
2022/11/12 05:34:45;;;;;;;8.73;3.25;;;5.90;99.90;;;;;;5077004;28;20047;-84
2022/11/12 05:37:13;;;;;;;6.93;2.60;;;5.80;99.90;;;;;;5093676;28;20055;-85
2022/11/12 05:39:38;;;;;;;7.20;2.85;;;5.80;99.90;;;;;;5094261;28;20059;-84
2022/11/12 05:42:04;;;;;;;6.60;2.88;;;5.80;99.90;;;;;;5093244;28;20036;-84
2022/11/12 05:44:30;;;;;;;6.78;2.60;;;5.70;99.90;;;;;;5076257;28;20047;-84
2022/11/12 05:46:56;;;;;;;6.97;2.63;;;5.70;99.90;;;;;;5093292;28;20124;-85
2022/11/12 05:49:21;;;;;;;6.90;3.03;;;5.60;99.90;;;;;;5093290;28;20036;-85
2022/11/12 05:51:47;;;;;;;7.38;3.10;;;5.60;99.90;;;;;;5093848;28;20047;-84
2022/11/12 05:54:13;;;;;;;5.82;2.95;;;5.60;99.90;;;;;;5092488;28;20040;-84
2022/11/12 05:56:39;;;;;;;7.47;2.85;;;5.60;99.90;;;;;;5093325;28;20044;-84
2022/11/12 05:59:08;;;;;;;7.10;2.95;;;5.60;99.90;;;;;;5093397;28;20036;-85
2022/11/12 06:01:37;;;;;;;8.65;3.70;;;5.60;99.90;;;;;;5076644;28;20043;-85
2022/11/12 06:04:03;;;;;;;7.93;3.30;;;5.60;99.90;;;;;;5075848;28;20684;-84
2022/11/12 06:06:28;;;;;;;7.65;3.80;;;5.60;99.90;;;;;;5075414;28;20036;-85
2022/11/12 06:08:54;;;;;;;7.13;2.95;;;5.60;99.90;;;;;;5076644;28;20058;-85
2022/11/12 06:11:20;;;;;;;10.23;4.07;;;5.60;99.90;;;;;;5075577;28;20101;-84
2022/11/12 06:13:45;;;;;;;9.45;3.97;;;5.60;99.90;;;;;;5076161;28;20044;-84
2022/11/12 06:16:11;;;;;;;7.00;2.95;;;5.60;99.90;;;;;;5093768;28;20505;-84
2022/11/12 06:18:37;;;;;;;8.05;3.50;;;5.60;99.90;;;;;;5093024;28;20131;-84
2022/11/12 06:21:18;;;;;;;8.30;3.60;;;5.50;99.90;;;;;;5093330;28;20072;-85
2022/11/12 06:23:45;;;;;;;9.55;4.07;;;5.50;99.90;;;;;;5091853;28;20043;-84
2022/11/12 06:26:10;;;;;;;7.38;3.28;;;5.50;99.90;;;;;;5075611;28;20039;-84
2022/11/12 06:28:36;;;;;;;12.43;3.85;;;5.50;99.90;;;;;;5076120;28;20028;-84
2022/11/12 06:31:01;;;;;;;7.43;3.40;;;5.50;99.90;;;;;;5092348;28;20065;-84
2022/11/12 06:33:27;;;;;;;7.88;3.30;;;5.50;99.90;;;;;;5092885;28;20048;-84
2022/11/12 06:35:57;;;;;;;8.60;3.25;;;5.40;99.90;;;;;;5092147;28;20082;-84
2022/11/12 06:38:23;;;;;;;8.88;3.60;;;5.40;99.90;;;;;;5076369;28;20085;-84
2022/11/12 06:40:48;;;;;;;7.72;3.50;;;5.40;99.90;;;;;;5076276;28;20044;-84
2022/11/12 06:43:14;;;;;;;7.45;3.25;;;5.40;99.90;;;;;;5089747;28;20044;-84
2022/11/12 06:45:39;;;;;;;8.55;2.72;;;5.40;99.90;;;;;;5092347;28;20476;-84
2022/11/12 06:48:05;;;;;;;6.50;2.60;;;5.30;99.90;;;;;;5075699;28;20048;-84
2022/11/12 06:50:30;;;;;;;7.40;2.67;;;5.30;99.90;;;;;;5091849;28;20048;-84
2022/11/12 06:52:59;;;;;;;8.50;2.30;;;5.20;99.90;;;;;;5092725;28;20075;-84
2022/11/12 06:55:24;;;;;;;5.57;2.13;;;5.20;99.90;;;;;;5074907;28;20046;-84
2022/11/12 06:57:52;;;;;;;6.45;2.42;;;5.20;99.90;;;;;;5075787;28;20134;-84
2022/11/12 07:00:18;;;;;;;7.32;2.90;;;5.10;99.90;;;;;;5092385;28;20100;-84
2022/11/12 07:02:44;;;;;;;8.75;3.28;;;5.10;99.90;;;;;;5074783;28;20040;-84
2022/11/12 07:05:09;;;;;;;8.45;3.10;;;5.20;99.90;;;;;;5075379;28;20036;-84
2022/11/12 07:07:35;;;;;;;10.55;2.70;;;5.10;99.90;;;;;;5074428;28;20032;-84
2022/11/12 07:10:00;;;;;;;10.70;3.28;;;5.10;99.90;;;;;;5075383;28;20397;-84
2022/11/12 07:12:26;;;;;;;8.07;2.90;;;5.10;99.90;;;;;;5091545;28;20161;-84
2022/11/12 07:14:53;;;;;;;7.82;2.90;;;5.10;99.90;;;;;;5075138;28;20036;-84
2022/11/12 07:17:18;;;;;;;7.07;2.85;;;5.10;99.90;;;;;;5075357;28;20036;-84
2022/11/12 07:19:44;;;;;;;7.40;3.25;;;5.10;99.90;;;;;;5074968;28;20416;-84
2022/11/12 07:22:09;;;;;;;6.20;2.92;;;5.10;99.90;;;;;;5092103;28;20057;-84
2022/11/12 07:24:35;;;;;;;8.55;2.63;;;5.10;99.90;;;;;;5091351;28;20044;-84
2022/11/12 07:27:00;;;;;;;7.55;3.25;;;5.10;99.90;;;;;;5090914;28;20049;-83
2022/11/12 07:29:26;;;;;;;9.10;3.30;;;5.10;99.90;;;;;;5075091;28;20102;-83
2022/11/12 07:31:51;;;;;;;8.10;3.35;;;5.10;99.90;;;;;;5091433;28;20040;-84
2022/11/12 07:34:17;;;;;;;8.80;3.67;;;5.00;99.90;;;;;;5072500;28;20036;-84
2022/11/12 07:36:42;;;;;;;8.68;3.72;;;5.00;99.90;;;;;;5105491;28;20039;-84
2022/11/12 07:39:08;;;;;;;8.43;4.05;;;5.00;99.90;;;;;;5070774;28;20058;-84
2022/11/12 07:41:33;;;;;;;9.82;4.47;;;5.00;99.90;;;;;;5089202;28;20043;-84
2022/11/12 07:43:59;;;;;;;7.50;3.63;;;5.00;99.90;;;;;;5073865;28;20476;-84
2022/11/12 07:46:26;;;;;;;8.68;3.92;;;5.10;99.90;;;;;;5073845;28;20066;-84
2022/11/12 07:48:52;;;;;;;8.93;4.13;;;5.10;99.90;;;;;;5074898;28;20562;-84
2022/11/12 07:51:19;;;;;;;10.07;4.57;;;5.10;99.90;;;;;;5090645;28;20040;-84
2022/11/12 07:53:45;;;;;;;11.82;4.75;;;5.10;99.90;;;;;;5074107;28;20039;-84
2022/11/12 07:56:16;;;;;;;9.40;3.85;;;5.20;99.90;;;;;;5073505;28;20039;-84
2022/11/12 07:58:43;;;;;;;9.73;4.00;;;5.20;99.90;;;;;;5090709;28;20043;-84
2022/11/12 08:01:21;;;;;;;9.13;4.20;;;5.30;99.90;;;;;;5074612;28;20032;-84
2022/11/12 08:03:46;;;;;;;9.95;4.55;;;5.30;99.90;;;;;;5090636;28;20055;-84
2022/11/12 08:06:12;;;;;;;9.63;4.00;;;5.30;99.90;;;;;;5073142;28;20417;-84
2022/11/12 08:08:37;;;;;;;8.88;3.90;;;5.30;99.90;;;;;;5091290;28;20040;-84
2022/11/12 08:11:03;;;;;;;6.72;3.47;;;5.30;99.90;;;;;;5090386;28;20830;-84
2022/11/12 08:13:29;;;;;;;9.68;3.55;;;5.30;99.90;;;;;;5073620;28;20449;-84
2022/11/12 08:15:58;;;;;;;9.77;3.95;;;5.30;99.90;;;;;;5091068;28;20036;-84
2022/11/12 08:18:25;;;;;;;8.20;3.55;;;5.20;99.90;;;;;;5091176;28;20040;-84
2022/11/12 08:20:50;;;;;;;8.00;3.53;;;5.20;99.90;;;;;;5074177;28;20043;-84
2022/11/12 08:23:16;;;;;;;8.63;4.18;;;5.20;99.90;;;;;;5089391;28;20051;-84
2022/11/12 08:25:42;;;;;;;8.02;3.00;;;5.30;99.90;;;;;;5090378;28;20032;-84
2022/11/12 08:28:08;;;;;;;7.78;3.40;;;5.30;99.90;;;;;;5090745;28;20036;-84
2022/11/12 08:30:34;;;;;;;8.75;4.25;;;5.30;99.90;;;;;;5073926;28;20047;-84
2022/11/12 08:33:02;;;;;;;8.95;3.60;;;5.30;99.90;;;;;;5073088;28;20040;-84
2022/11/12 08:35:29;;;;;;;8.73;4.43;;;5.40;99.90;;;;;;5086064;28;20051;-84
2022/11/12 08:38:03;;;;;;;11.43;5.30;;;5.40;99.90;;;;;;5089135;28;20035;-84
2022/11/12 08:40:30;;;;;;;11.52;6.43;;;5.50;99.90;;;;;;5089558;28;20063;-84
2022/11/12 08:43:01;;;;;;;11.48;5.80;;;5.60;99.90;;;;;;5089463;28;20051;-84
2022/11/12 08:45:27;;;;;;;12.20;6.55;;;5.70;99.90;;;;;;5087074;28;20041;-84
2022/11/12 08:47:58;;;;;;;12.02;6.53;;;5.80;99.90;;;;;;5104347;28;20519;-84
2022/11/12 08:50:23;;;;;;;14.05;6.47;;;5.80;99.90;;;;;;5103561;28;20036;-84
2022/11/12 08:52:49;;;;;;;12.23;5.88;;;5.90;99.90;;;;;;5104111;28;20379;-84
2022/11/12 08:55:14;;;;;;;15.38;7.28;;;6.00;99.90;;;;;;5112941;27;20440;-84
2022/11/12 08:57:44;;;;;;;14.13;7.10;;;6.10;99.90;;;;;;5090493;28;20505;-84
2022/11/12 09:00:11;;;;;;;14.85;6.65;;;6.20;99.90;;;;;;5073013;28;20118;-85
2022/11/12 09:02:36;;;;;;;15.68;7.13;;;6.30;99.90;;;;;;5072431;28;20039;-84
2022/11/12 09:05:02;;;;;;;12.90;7.22;;;6.40;99.90;;;;;;5073423;28;20032;-85
2022/11/12 09:07:28;;;;;;;11.98;7.25;;;6.40;99.90;;;;;;5070707;28;20036;-82
2022/11/12 09:09:54;;;;;;;12.60;6.65;;;6.50;99.90;;;;;;5087493;28;20109;-82
2022/11/12 09:12:19;;;;;;;16.40;7.10;;;6.60;99.90;;;;;;5073381;28;20083;-82
2022/11/12 09:14:45;;;;;;;13.18;7.25;;;6.70;99.90;;;;;;5090166;28;20569;-82
2022/11/12 09:17:11;;;;;;;13.98;7.25;;;6.80;99.90;;;;;;5073621;28;20091;-81
2022/11/12 09:19:37;;;;;;;13.55;6.93;;;6.90;99.90;;;;;;5089878;28;20512;-82
2022/11/12 09:22:03;;;;;;;12.50;6.70;;;6.90;99.90;;;;;;5090082;28;20040;-82
2022/11/12 09:24:28;;;;;;;11.82;6.55;;;7.00;99.90;;;;;;5071262;28;20043;-82
2022/11/12 09:26:54;;;;;;;15.68;7.75;;;7.20;99.90;;;;;;5090187;28;20458;-81
2022/11/12 09:29:20;;;;;;;14.38;8.00;;;7.20;99.90;;;;;;5090083;28;20105;-81
2022/11/12 09:31:46;;;;;;;15.05;8.30;;;7.30;99.90;;;;;;5073597;28;20047;-81
2022/11/12 09:34:11;;;;;;;16.30;6.93;;;7.50;99.90;;;;;;5089685;28;20034;-82
2022/11/12 09:36:37;;;;;;;14.77;7.90;;;7.60;99.90;;;;;;5090081;28;20109;-82
2022/11/12 09:39:03;;;;;;;15.25;7.95;;;7.70;99.90;;;;;;5089820;28;20505;-83
2022/11/12 09:41:34;;;;;;;17.27;8.18;;;7.80;99.90;;;;;;5089580;28;20032;-82
2022/11/12 09:44:03;;;;;;;15.93;8.35;;;8.00;99.90;;;;;;5072331;28;20044;-82
2022/11/12 09:46:48;;;;;;;16.73;8.93;;;8.10;99.90;;;;;;5073060;28;20036;-82
2022/11/12 09:49:31;;;;;;;13.30;7.45;;;8.20;99.90;;;;;;5089842;28;20043;-82
2022/11/12 09:52:24;;;;;;;15.45;7.55;;;8.40;99.90;;;;;;5073116;28;20036;-82
2022/11/12 09:55:03;;;;;;;12.60;7.38;;;8.50;99.90;;;;;;5073362;28;20040;-82
2022/11/12 09:57:28;;;;;;;15.50;8.65;;;8.60;99.90;;;;;;5089985;28;20040;-82
2022/11/12 09:59:54;;;;;;;15.52;8.73;;;8.70;99.90;;;;;;5089877;28;20125;-82
2022/11/12 10:02:34;;;;;;;17.05;8.27;;;8.90;99.90;;;;;;5089630;28;20133;-82
2022/11/12 10:05:30;;;;;;;18.33;8.30;;;9.00;99.90;;;;;;5089941;28;20043;-82
2022/11/12 10:08:14;;;;;;;17.30;8.82;;;9.20;99.90;;;;;;5090078;28;20040;-82
2022/11/12 10:10:54;;;;;;;14.15;7.35;;;9.40;99.90;;;;;;5072970;28;20036;-82
2022/11/12 10:13:36;;;;;;;16.65;8.82;;;9.50;99.90;;;;;;5089299;28;20048;-82
2022/11/12 10:16:41;;;;;;;14.52;7.97;;;9.70;99.90;;;;;;5073270;28;20051;-82
2022/11/12 10:19:25;;;;;;;17.55;8.50;;;9.80;99.90;;;;;;5091717;28;20044;-82
2022/11/12 10:22:16;;;;;;;17.45;8.43;;;9.90;99.90;;;;;;5076511;28;20036;-82
2022/11/12 10:24:43;;;;;;;15.65;7.75;;;10.00;99.90;;;;;;5110356;28;20040;-82
2022/11/12 10:27:25;;;;;;;14.93;8.27;;;10.10;99.90;;;;;;5076431;28;20051;-82
2022/11/12 10:30:01;;;;;;;15.98;8.10;;;10.30;99.90;;;;;;5092787;28;20114;-82
2022/11/12 10:32:26;;;;;;;14.00;8.15;;;10.60;99.90;;;;;;5092837;28;20049;-82
2022/11/12 10:34:52;;;;;;;14.68;8.27;;;10.70;99.90;;;;;;5093003;28;20040;-82
2022/11/12 10:37:27;;;;;;;16.52;8.07;;;10.90;99.90;;;;;;5092856;28;20047;-82
2022/11/12 10:39:53;;;;;;;14.77;8.20;;;11.00;99.90;;;;;;5076408;28;20166;-82
2022/11/12 10:42:20;;;;;;;13.90;6.95;;;11.20;99.90;;;;;;5092791;28;20119;-82
2022/11/12 10:44:47;;;;;;;14.57;7.90;;;11.40;99.90;;;;;;5092871;28;20043;-83
2022/11/12 10:47:21;;;;;;;12.88;7.30;;;11.50;99.90;;;;;;5093057;28;20044;-83
2022/11/12 10:50:09;;;;;;;16.63;8.20;;;11.70;99.90;;;;;;5072299;28;20043;-82
2022/11/12 10:52:35;;;;;;;14.40;8.13;;;11.90;99.90;;;;;;5089153;28;20083;-82
2022/11/12 10:55:13;;;;;;;13.27;7.30;;;12.10;99.90;;;;;;5089045;28;20043;-82
2022/11/12 10:57:38;;;;;;;12.90;7.35;;;12.30;99.90;;;;;;5089652;28;20043;-83
2022/11/12 11:00:13;;;;;;;14.60;9.48;;;12.40;99.90;;;;;;5089286;28;20051;-83
2022/11/12 11:02:52;;;;;;;14.32;9.00;;;12.60;99.90;;;;;;5090985;28;20044;-83
2022/11/12 11:05:33;;;;;;;16.20;9.75;;;12.80;99.90;;;;;;5092798;28;20690;-83
2022/11/12 11:08:00;;;;;;;14.30;9.70;;;12.90;99.90;;;;;;5075531;28;20489;-83
2022/11/12 11:10:27;;;;;;;15.15;9.80;;;13.00;99.90;;;;;;5075750;28;20081;-82
2022/11/12 11:13:19;;;;;;;14.50;9.15;;;13.10;99.90;;;;;;5075241;28;20036;-83
2022/11/12 11:16:05;;;;;;;13.02;6.60;;;13.20;99.90;;;;;;5075594;28;20060;-83
2022/11/12 11:18:34;;;;;;;12.75;6.43;;;13.30;99.90;;;;;;5075767;28;20101;-83
2022/11/12 11:21:28;;;;;;;11.23;6.65;;;13.40;99.90;;;;;;5092492;28;20043;-83
2022/11/12 11:24:11;;;;;;;12.95;9.25;;;13.60;99.90;;;;;;5091849;28;20040;-83
2022/11/12 11:27:05;;;;;;;11.40;7.05;;;13.70;99.90;;;;;;5092505;28;20040;-83
2022/11/12 11:30:04;;;;;;;16.40;7.10;;;13.90;99.90;;;;;;5092229;28;20036;-83
2022/11/12 11:32:51;;;;;;;13.60;9.27;;;14.00;99.90;;;;;;5092169;28;20109;-83
2022/11/12 11:35:23;;;;;;;14.52;8.32;;;14.00;99.90;;;;;;5075212;28;20048;-83
2022/11/12 11:37:54;;;;;;;13.02;7.13;;;14.20;99.90;;;;;;5075202;28;20509;-83
2022/11/12 11:40:34;;;;;;;12.55;8.73;;;14.20;99.90;;;;;;5075089;28;20044;-83
2022/11/12 11:43:22;;;;;;;13.13;9.23;;;14.40;99.90;;;;;;5091576;28;20417;-83
2022/11/12 11:46:27;;;;;;;12.45;9.02;;;14.60;99.90;;;;;;5074855;28;20401;-83
2022/11/12 11:49:17;;;;;;;13.88;8.80;;;15.00;99.90;;;;;;5075030;28;20036;-83
2022/11/12 11:52:06;;;;;;;12.57;7.18;;;15.20;99.90;;;;;;5074834;28;20036;-83
2022/11/12 11:55:02;;;;;;;14.68;8.77;;;15.20;99.90;;;;;;5091574;28;20040;-83
2022/11/12 11:57:34;;;;;;;12.85;8.43;;;15.40;99.90;;;;;;5091626;28;20044;-83
2022/11/12 12:00:17;;;;;;;13.75;7.25;;;15.70;99.90;;;;;;5074140;28;20044;-83
2022/11/12 12:03:02;;;;;;;13.65;8.57;;;15.90;99.90;;;;;;5091158;28;20044;-83
2022/11/12 12:05:53;;;;;;;13.05;9.38;;;16.20;99.90;;;;;;5074814;28;20124;-83
2022/11/12 12:08:45;;;;;;;12.18;8.60;;;16.70;99.90;;;;;;5091354;28;20040;-83
2022/11/12 12:11:13;;;;;;;13.55;8.48;;;17.40;99.90;;;;;;5091227;28;20028;-83
2022/11/12 12:13:38;;;;;;;11.88;8.73;;;18.20;92.00;;;;;;5091140;28;20040;-83
2022/11/12 12:16:21;;;;;;;14.80;8.32;;;18.30;88.30;;;;;;5074251;28;20092;-83
2022/11/12 12:18:57;;;;;;;11.60;7.75;;;18.40;90.30;;;;;;5092488;28;20039;-83
2022/11/12 12:21:25;;;;;;;13.30;8.52;;;18.50;88.20;;;;;;5091495;28;20389;-83
2022/11/12 12:24:16;;;;;;;11.40;7.80;;;18.60;90.10;;;;;;5090814;28;20040;-83
2022/11/12 12:27:02;;;;;;;10.85;7.35;;;18.90;91.40;;;;;;5067290;28;20090;-83
2022/11/12 12:29:36;;;;;;;12.07;7.95;;;19.40;87.20;;;;;;5091048;28;20036;-83
2022/11/12 12:32:39;;;;;;;12.23;7.55;;;19.60;82.40;;;;;;5073745;28;20569;-83
2022/11/12 12:35:24;;;;;;;11.07;7.57;;;19.90;82.10;;;;;;5090716;28;20048;-83
2022/11/12 12:38:04;;;;;;;10.80;7.25;;;20.40;79.60;;;;;;5090907;28;20042;-84
2022/11/12 12:40:32;;;;;;;11.75;6.82;;;21.30;80.00;;;;;;5092127;28;20089;-83
2022/11/12 12:43:13;;;;;;;13.20;8.82;;;22.50;75.10;;;;;;5090216;28;20069;-83
2022/11/12 12:45:45;;;;;;;10.45;6.55;;;23.80;72.80;;;;;;5092007;28;20042;-84
2022/11/12 12:48:26;;;;;;;11.27;6.72;;;24.90;67.30;;;;;;5090761;28;20130;-84
2022/11/12 12:50:53;;;;;;;10.30;6.43;;;25.50;63.70;;;;;;5090329;28;20462;-84
2022/11/12 12:53:24;;;;;;;13.90;6.35;;;26.10;61.70;;;;;;5090343;28;20623;-84
2022/11/12 12:55:52;;;;;;;10.40;5.93;;;26.10;58.30;;;;;;5090884;28;20036;-84
2022/11/12 12:58:25;;;;;;;9.20;5.90;;;26.30;58.10;;;;;;5073302;28;20120;-84
2022/11/12 13:00:56;;;;;;;10.63;6.18;;;26.50;55.80;;;;;;5092032;28;20043;-84
2022/11/12 13:03:47;;;;;;;11.18;5.85;;;27.00;55.90;;;;;;5073235;28;20036;-84
2022/11/12 13:06:22;;;;;;;11.50;6.40;;;27.80;55.70;;;;;;5090493;28;20051;-84
2022/11/12 13:09:13;;;;;;;10.15;5.80;;;28.20;54.50;;;;;;5091723;28;20047;-84
2022/11/12 13:14:38;;;;;;;9.55;5.63;;;29.00;51.40;;;;;;5090178;28;20501;-84
2022/11/12 13:17:09;;;;;;;9.32;5.20;;;29.20;50.30;;;;;;5090164;28;20135;-84
2022/11/12 13:19:53;;;;;;;8.88;5.10;;;29.50;49.70;;;;;;5073536;28;20093;-84
2022/11/12 13:22:19;;;;;;;9.35;5.45;;;29.70;47.60;;;;;;5073210;28;20039;-84
2022/11/12 13:25:04;;;;;;;8.93;5.07;;;29.90;48.80;;;;;;5091432;28;20040;-84
2022/11/12 13:27:42;;;;;;;9.55;5.57;;;30.30;47.50;;;;;;5090127;28;20055;-84
2022/11/12 13:30:30;;;;;;;10.50;5.38;;;30.70;45.90;;;;;;5073324;28;20032;-85
2022/11/12 13:32:57;;;;;;;9.68;5.05;;;31.30;45.60;;;;;;5090242;28;20086;-84